Time;durP1;ratioP1;P1;durP2;ratioP2;P2;SDS_P1;SDS_P2;PMS_P1;PMS_P2;Temp;Humidity;BMP_temperature;BMP_pressure;BME280_temperature;BME280_humidity;BME280_pressure;Samples;Min_cycle;Max_cycle;Signal;HPM_P1;HPM_P2
2022/04/02 00:00:16;;;;;;;1.43;1.00;;;0.90;95.40;;;;;;5032089;28;20168;-73
2022/04/02 00:02:43;;;;;;;1.40;1.30;;;0.90;95.60;;;;;;5032056;28;20291;-73
2022/04/02 00:05:10;;;;;;;1.30;1.30;;;0.90;95.70;;;;;;5031992;28;20419;-72
2022/04/02 00:07:35;;;;;;;1.73;1.63;;;0.90;96.30;;;;;;5031937;28;20406;-72
2022/04/02 00:10:01;;;;;;;1.90;1.67;;;0.80;96.10;;;;;;5032059;28;20966;-72
2022/04/02 00:12:26;;;;;;;0.90;0.90;;;0.80;96.30;;;;;;5030376;28;20733;-72
2022/04/02 00:14:52;;;;;;;1.07;1.00;;;0.80;96.60;;;;;;5031967;28;20168;-73
2022/04/02 00:17:17;;;;;;;1.37;1.27;;;0.80;96.80;;;;;;5031914;28;20233;-73
2022/04/02 00:19:43;;;;;;;2.40;1.73;;;0.80;97.00;;;;;;5031842;28;20164;-73
2022/04/02 00:22:09;;;;;;;1.40;1.30;;;0.80;97.30;;;;;;5031402;28;20195;-73
2022/04/02 00:24:34;;;;;;;1.83;1.10;;;0.70;97.80;;;;;;5031691;28;20422;-73
2022/04/02 00:27:00;;;;;;;1.90;1.70;;;0.70;97.70;;;;;;5031709;28;20897;-73
2022/04/02 00:29:25;;;;;;;1.47;1.40;;;0.70;97.90;;;;;;5031662;28;20167;-74
2022/04/02 00:31:50;;;;;;;1.43;1.33;;;0.70;98.30;;;;;;5031381;28;20223;-73
2022/04/02 00:34:16;;;;;;;2.40;1.43;;;0.70;98.90;;;;;;5031504;28;20254;-73
2022/04/02 00:36:42;;;;;;;3.83;1.60;;;0.70;98.80;;;;;;5031696;28;20262;-72
2022/04/02 00:39:08;;;;;;;1.33;1.27;;;0.70;99.00;;;;;;5031560;28;20199;-73
2022/04/02 00:41:34;;;;;;;2.17;1.97;;;0.60;99.30;;;;;;5031413;28;20191;-72
2022/04/02 00:44:11;;;;;;;3.90;1.27;;;0.60;99.60;;;;;;5031152;28;20421;-73
2022/04/02 00:46:38;;;;;;;3.87;2.27;;;0.60;99.90;;;;;;5029906;28;20453;-72
2022/04/02 00:49:05;;;;;;;1.83;1.73;;;0.60;99.90;;;;;;5031375;28;20456;-74
2022/04/02 00:51:32;;;;;;;1.67;1.57;;;0.50;99.90;;;;;;5031558;28;20437;-72
2022/04/02 00:53:57;;;;;;;1.43;1.13;;;0.50;99.90;;;;;;5031273;28;20436;-72
2022/04/02 00:56:23;;;;;;;1.47;1.37;;;0.60;99.90;;;;;;5031090;28;20407;-72
2022/04/02 00:58:49;;;;;;;1.07;1.00;;;0.50;99.90;;;;;;5031093;28;20178;-73
2022/04/02 01:01:16;;;;;;;1.20;1.20;;;0.50;99.90;;;;;;5031818;28;20446;-73
2022/04/02 01:03:43;;;;;;;1.00;1.00;;;0.50;99.90;;;;;;5035302;28;20535;-73
2022/04/02 01:06:10;;;;;;;1.27;1.17;;;0.50;99.90;;;;;;5035514;28;20410;-73
2022/04/02 01:08:36;;;;;;;1.93;1.23;;;0.50;99.90;;;;;;5035195;28;20923;-72
2022/04/02 01:11:03;;;;;;;1.07;1.07;;;0.50;99.90;;;;;;5034897;28;20426;-73
2022/04/02 01:13:29;;;;;;;1.73;1.37;;;0.50;99.90;;;;;;5034987;28;20406;-73
2022/04/02 01:15:56;;;;;;;11.93;1.30;;;0.50;99.90;;;;;;5035244;28;20421;-73
2022/04/02 01:18:22;;;;;;;2.90;1.93;;;0.50;99.90;;;;;;5035225;28;20474;-74
2022/04/02 01:20:48;;;;;;;0.90;0.90;;;0.50;99.90;;;;;;5035311;28;20430;-73
2022/04/02 01:23:14;;;;;;;1.43;1.33;;;0.50;99.90;;;;;;5035284;28;20172;-73
2022/04/02 01:25:40;;;;;;;1.43;1.33;;;0.40;99.90;;;;;;5034972;28;20416;-73
2022/04/02 01:28:06;;;;;;;1.63;1.40;;;0.40;99.90;;;;;;5034012;28;20240;-73
2022/04/02 01:30:32;;;;;;;1.20;1.10;;;0.40;99.90;;;;;;5035046;28;20445;-73
2022/04/02 01:33:01;;;;;;;1.60;1.40;;;0.40;99.90;;;;;;5035012;28;20451;-73
2022/04/02 01:35:27;;;;;;;1.30;1.20;;;0.50;99.90;;;;;;5034968;28;20424;-73
2022/04/02 01:37:53;;;;;;;3.30;1.50;;;0.40;99.90;;;;;;5034296;28;20838;-73
2022/04/02 01:40:19;;;;;;;1.27;1.20;;;0.40;99.90;;;;;;5035100;28;20524;-73
2022/04/02 01:42:46;;;;;;;2.50;1.93;;;0.40;99.90;;;;;;5035123;28;20525;-73
2022/04/02 01:45:13;;;;;;;1.30;1.20;;;0.40;99.90;;;;;;5034847;28;20428;-73
2022/04/02 01:47:38;;;;;;;3.57;1.07;;;0.40;99.90;;;;;;5034525;28;20438;-72
2022/04/02 01:50:05;;;;;;;1.60;1.50;;;0.40;99.90;;;;;;5034363;28;20857;-72
2022/04/02 01:52:31;;;;;;;0.90;0.90;;;0.40;99.90;;;;;;5034186;28;20211;-72
2022/04/02 01:54:56;;;;;;;3.10;1.83;;;0.40;99.90;;;;;;5034361;28;20454;-72
2022/04/02 01:57:22;;;;;;;1.67;1.57;;;0.40;99.90;;;;;;5034560;28;20172;-72
2022/04/02 01:59:49;;;;;;;1.60;1.27;;;0.40;99.90;;;;;;5034543;28;20179;-73
2022/04/02 02:02:16;;;;;;;2.70;1.73;;;0.50;99.90;;;;;;5034309;28;20611;-72
2022/04/02 02:04:41;;;;;;;1.00;1.00;;;0.50;99.90;;;;;;5034618;28;20808;-72
2022/04/02 02:07:07;;;;;;;6.50;1.90;;;0.40;99.90;;;;;;5034098;28;20417;-72
2022/04/02 02:09:33;;;;;;;1.30;1.20;;;0.40;99.90;;;;;;5034106;28;20171;-72
2022/04/02 02:11:59;;;;;;;0.83;0.83;;;0.50;99.90;;;;;;5033957;28;20249;-72
2022/04/02 02:14:26;;;;;;;1.33;1.33;;;0.50;99.90;;;;;;5032784;28;20483;-74
2022/04/02 02:16:51;;;;;;;1.00;1.00;;;0.50;99.90;;;;;;5034309;28;20903;-74
2022/04/02 02:19:17;;;;;;;0.97;0.97;;;0.50;99.90;;;;;;5033911;28;20544;-72
2022/04/02 02:21:42;;;;;;;1.57;1.47;;;0.50;99.90;;;;;;5032472;28;20689;-73
2022/04/02 02:24:08;;;;;;;1.63;1.40;;;0.50;99.90;;;;;;5033670;28;20294;-73
2022/04/02 02:26:34;;;;;;;1.40;1.30;;;0.60;99.90;;;;;;5034065;28;20168;-72
2022/04/02 02:29:00;;;;;;;1.40;1.30;;;0.60;99.90;;;;;;5033696;28;20530;-73
2022/04/02 02:31:26;;;;;;;1.73;1.63;;;0.60;99.90;;;;;;5033619;28;20456;-72
2022/04/02 02:36:35;;;;;;;1.00;1.00;;;0.70;99.90;;;;;;5033581;28;20286;-72
2022/04/02 02:39:00;;;;;;;1.97;1.30;;;0.60;99.90;;;;;;5033509;28;20418;-73
2022/04/02 02:41:26;;;;;;;1.17;1.17;;;0.70;99.90;;;;;;5033589;28;20220;-73
2022/04/02 02:43:51;;;;;;;1.77;1.10;;;0.70;99.90;;;;;;5033180;28;20606;-72
2022/04/02 02:46:17;;;;;;;0.97;0.97;;;0.70;99.90;;;;;;5033126;28;20164;-72
2022/04/02 02:48:46;;;;;;;2.10;1.30;;;0.70;99.90;;;;;;5033482;28;20243;-71
2022/04/02 02:51:13;;;;;;;1.67;1.50;;;0.70;99.90;;;;;;5033137;28;20936;-72
2022/04/02 02:53:38;;;;;;;1.93;1.60;;;0.70;99.90;;;;;;5033337;28;20435;-72
2022/04/02 02:56:04;;;;;;;1.10;0.93;;;0.70;99.90;;;;;;5033138;28;20956;-72
2022/04/02 02:58:30;;;;;;;0.80;0.80;;;0.70;99.90;;;;;;5031829;28;20704;-72
2022/04/02 03:00:55;;;;;;;2.40;1.93;;;0.70;99.90;;;;;;5032863;28;20427;-73
2022/04/02 03:03:22;;;;;;;1.03;1.03;;;0.70;99.90;;;;;;5032991;28;20164;-72
2022/04/02 03:05:48;;;;;;;1.63;1.53;;;0.70;99.90;;;;;;5032895;28;20171;-72
2022/04/02 03:08:14;;;;;;;1.03;0.90;;;0.70;99.90;;;;;;5032801;28;20410;-72
2022/04/02 03:10:40;;;;;;;0.90;0.90;;;0.70;99.90;;;;;;5032580;28;20407;-72
2022/04/02 03:13:06;;;;;;;1.30;1.20;;;0.70;99.90;;;;;;5033250;28;20214;-72
2022/04/02 03:15:32;;;;;;;1.20;1.20;;;0.70;99.90;;;;;;5032588;28;20415;-73
2022/04/02 03:18:03;;;;;;;2.30;2.17;;;0.70;99.90;;;;;;5032652;28;20814;-72
2022/04/02 03:20:29;;;;;;;1.50;1.40;;;0.60;99.90;;;;;;5032618;28;20403;-73
2022/04/02 03:22:54;;;;;;;1.10;1.10;;;0.70;99.90;;;;;;5032587;28;20453;-73
2022/04/02 03:25:21;;;;;;;2.43;1.77;;;0.60;99.90;;;;;;5032427;28;20171;-73
2022/04/02 03:27:47;;;;;;;2.03;1.10;;;0.60;99.90;;;;;;5032345;28;20155;-71
2022/04/02 03:30:16;;;;;;;0.90;0.90;;;0.60;99.90;;;;;;5032630;28;20869;-71
2022/04/02 03:32:41;;;;;;;1.13;1.07;;;0.60;99.90;;;;;;5032311;28;20454;-72
2022/04/02 03:35:08;;;;;;;2.00;1.30;;;0.60;99.90;;;;;;5032475;28;20807;-72
2022/04/02 03:37:36;;;;;;;3.07;1.60;;;0.50;99.90;;;;;;5032486;28;20187;-73
2022/04/02 03:40:05;;;;;;;0.80;0.80;;;0.50;99.90;;;;;;5032396;28;20441;-73
2022/04/02 03:42:30;;;;;;;1.20;1.10;;;0.40;99.90;;;;;;5031912;28;20827;-73
2022/04/02 03:44:56;;;;;;;0.97;0.97;;;0.40;99.90;;;;;;5032238;28;20412;-72
2022/04/02 03:47:22;;;;;;;1.30;1.23;;;0.40;99.90;;;;;;5032154;28;20532;-73
2022/04/02 03:49:48;;;;;;;1.43;1.33;;;0.40;99.90;;;;;;5031910;28;20668;-73
2022/04/02 03:52:15;;;;;;;1.50;1.40;;;0.30;99.90;;;;;;5032317;28;20422;-72
2022/04/02 03:54:41;;;;;;;1.60;1.50;;;0.30;99.90;;;;;;5031797;28;20786;-72
2022/04/02 03:57:08;;;;;;;0.90;0.90;;;0.30;99.90;;;;;;5031698;28;20534;-73
2022/04/02 03:59:34;;;;;;;0.90;0.90;;;0.30;99.90;;;;;;5031872;28;20402;-72
2022/04/02 04:02:00;;;;;;;2.00;1.90;;;0.20;99.90;;;;;;5031896;28;20477;-73
2022/04/02 04:04:26;;;;;;;1.00;1.00;;;0.20;99.90;;;;;;5031955;28;20172;-72
2022/04/02 04:06:52;;;;;;;1.17;1.07;;;0.20;99.90;;;;;;5031792;28;20806;-72
2022/04/02 04:09:19;;;;;;;1.63;1.53;;;0.20;99.90;;;;;;5031718;28;20494;-73
2022/04/02 04:11:44;;;;;;;0.90;0.90;;;0.20;99.90;;;;;;5031914;28;20433;-72
2022/04/02 04:14:10;;;;;;;1.10;1.10;;;0.20;99.90;;;;;;5031697;28;20865;-72
2022/04/02 04:16:36;;;;;;;1.47;1.10;;;0.20;99.90;;;;;;5031624;28;20164;-73
2022/04/02 04:19:02;;;;;;;1.30;1.20;;;0.20;99.90;;;;;;5032014;28;20259;-72
2022/04/02 04:21:27;;;;;;;1.00;1.00;;;0.20;99.90;;;;;;5031118;28;20192;-72
2022/04/02 04:23:53;;;;;;;1.60;1.50;;;0.20;99.90;;;;;;5031352;28;20536;-72
2022/04/02 04:26:18;;;;;;;0.90;0.90;;;0.20;99.90;;;;;;5031383;28;20179;-72
2022/04/02 04:28:44;;;;;;;1.73;1.37;;;0.20;99.90;;;;;;5031467;28;20156;-73
2022/04/02 04:31:10;;;;;;;1.00;1.00;;;0.20;99.90;;;;;;5050432;23;21043;-68
2022/04/02 04:33:37;;;;;;;1.00;1.00;;;0.20;99.90;;;;;;5011555;28;20254;-67
2022/04/02 04:36:03;;;;;;;1.43;1.30;;;0.20;99.90;;;;;;5010929;28;20172;-66
2022/04/02 04:38:29;;;;;;;1.10;1.00;;;0.20;99.90;;;;;;5012120;28;20465;-66
2022/04/02 04:40:55;;;;;;;2.60;1.40;;;0.20;99.90;;;;;;5011739;28;20177;-67
2022/04/02 04:43:20;;;;;;;3.00;1.50;;;0.20;99.90;;;;;;5012224;28;20403;-68
2022/04/02 04:45:46;;;;;;;2.30;2.10;;;0.30;99.90;;;;;;5012059;28;20172;-68
2022/04/02 04:48:11;;;;;;;1.10;1.00;;;0.20;99.90;;;;;;5011478;28;20223;-67
2022/04/02 04:50:37;;;;;;;0.80;0.80;;;0.30;99.90;;;;;;5011503;28;20214;-67
2022/04/02 04:53:02;;;;;;;0.80;0.80;;;0.20;99.90;;;;;;5011395;28;20227;-66
2022/04/02 04:55:29;;;;;;;1.37;1.27;;;0.20;99.90;;;;;;5011240;28;20181;-66
2022/04/02 04:57:54;;;;;;;1.13;1.10;;;0.20;99.90;;;;;;5011491;28;20180;-66
2022/04/02 05:00:20;;;;;;;1.77;1.57;;;0.30;99.90;;;;;;5011531;28;20421;-67
2022/04/02 05:02:47;;;;;;;1.03;0.93;;;0.30;99.90;;;;;;5011344;28;20203;-66
2022/04/02 05:05:12;;;;;;;1.03;1.00;;;0.30;99.90;;;;;;5011130;28;20417;-70
2022/04/02 05:07:39;;;;;;;2.40;1.17;;;0.40;99.90;;;;;;5011149;28;20412;-66
2022/04/02 05:10:06;;;;;;;0.90;0.90;;;0.40;99.90;;;;;;5011264;28;20168;-66
2022/04/02 05:12:32;;;;;;;3.10;2.13;;;0.40;99.90;;;;;;5011172;28;20427;-67
2022/04/02 05:14:57;;;;;;;1.30;1.20;;;0.40;99.90;;;;;;5011262;28;20438;-68
2022/04/02 05:17:23;;;;;;;1.70;1.30;;;0.40;99.90;;;;;;5011392;28;20811;-67
2022/04/02 05:19:49;;;;;;;1.80;1.70;;;0.50;99.90;;;;;;5011262;28;20211;-67
2022/04/02 05:22:14;;;;;;;3.13;1.20;;;0.60;99.90;;;;;;5011093;28;20200;-67
2022/04/02 05:24:40;;;;;;;1.10;1.00;;;0.60;99.90;;;;;;5011318;28;20207;-67
2022/04/02 05:27:05;;;;;;;1.17;1.07;;;0.60;99.90;;;;;;5011668;28;20189;-67
2022/04/02 05:29:31;;;;;;;1.37;1.27;;;0.70;99.90;;;;;;5011590;28;20192;-68
2022/04/02 05:31:56;;;;;;;1.93;1.83;;;0.70;99.90;;;;;;5011205;28;20274;-67
2022/04/02 05:34:22;;;;;;;1.40;1.30;;;0.80;99.90;;;;;;5011174;28;20191;-67
2022/04/02 05:36:47;;;;;;;1.80;1.70;;;0.80;99.90;;;;;;5011535;28;20180;-66
2022/04/02 05:39:13;;;;;;;1.07;1.07;;;0.90;99.90;;;;;;5010892;28;20199;-66
2022/04/02 05:41:39;;;;;;;1.20;1.20;;;0.90;99.90;;;;;;5009369;28;20211;-67
2022/04/02 05:44:06;;;;;;;1.20;1.13;;;0.90;99.90;;;;;;5011155;28;20355;-67
2022/04/02 05:46:32;;;;;;;2.37;1.37;;;1.00;99.90;;;;;;5011047;28;20530;-67
2022/04/02 05:48:58;;;;;;;3.97;1.70;;;1.10;99.90;;;;;;5014644;28;20403;-67
2022/04/02 05:51:24;;;;;;;1.27;1.17;;;1.10;99.90;;;;;;5014336;28;20767;-67
2022/04/02 05:53:49;;;;;;;2.20;1.63;;;1.20;99.90;;;;;;5014799;28;20168;-66
2022/04/02 05:56:15;;;;;;;1.20;1.13;;;1.20;99.90;;;;;;5012885;28;20176;-67
2022/04/02 05:58:41;;;;;;;2.07;1.30;;;1.30;99.90;;;;;;5014468;28;20179;-67
2022/04/02 06:01:07;;;;;;;1.30;1.13;;;1.50;99.90;;;;;;5014888;28;20228;-67
2022/04/02 06:03:33;;;;;;;1.40;1.30;;;1.60;99.90;;;;;;5014444;28;20410;-67
2022/04/02 06:05:58;;;;;;;1.77;1.00;;;1.50;99.90;;;;;;5014774;28;20948;-67
2022/04/02 06:08:24;;;;;;;1.10;1.00;;;1.60;99.90;;;;;;5014497;28;20199;-67
2022/04/02 06:10:49;;;;;;;1.40;1.30;;;1.60;99.90;;;;;;5014530;28;20545;-68
2022/04/02 06:13:15;;;;;;;2.50;1.50;;;1.70;99.90;;;;;;5014334;28;20246;-67
2022/04/02 06:15:41;;;;;;;2.30;2.00;;;1.70;99.90;;;;;;5014316;28;20554;-68
2022/04/02 06:18:09;;;;;;;1.27;0.93;;;1.80;99.90;;;;;;5014208;28;20400;-68
2022/04/02 06:20:34;;;;;;;2.93;2.67;;;2.20;99.90;;;;;;5013831;28;20210;-67
2022/04/02 06:23:00;;;;;;;1.10;1.00;;;2.70;99.90;;;;;;5013856;28;20487;-67
2022/04/02 06:25:25;;;;;;;1.00;1.00;;;3.10;99.90;;;;;;5013843;28;20222;-68
2022/04/02 06:27:52;;;;;;;3.73;1.20;;;3.70;99.90;;;;;;5014149;28;20746;-67
2022/04/02 06:30:20;;;;;;;1.47;1.37;;;3.70;99.90;;;;;;5014320;28;20307;-67
2022/04/02 06:32:46;;;;;;;1.30;1.20;;;4.50;99.90;;;;;;5013701;28;20443;-70
2022/04/02 06:35:11;;;;;;;1.20;1.10;;;4.30;99.90;;;;;;5013941;28;20419;-68
2022/04/02 06:37:39;;;;;;;1.27;1.07;;;4.60;99.90;;;;;;5013792;28;20331;-68
2022/04/02 06:40:06;;;;;;;0.80;0.80;;;4.90;99.90;;;;;;5013882;28;20169;-68
2022/04/02 06:42:32;;;;;;;1.50;1.40;;;5.10;99.90;;;;;;5013563;28;20453;-67
2022/04/02 06:44:57;;;;;;;0.97;0.90;;;5.40;99.90;;;;;;5013725;28;20486;-67
2022/04/02 06:47:27;;;;;;;1.60;0.93;;;5.20;99.90;;;;;;5013663;28;20247;-67
2022/04/02 06:49:53;;;;;;;1.27;1.17;;;5.20;99.90;;;;;;5014794;28;20518;-68
2022/04/02 06:52:18;;;;;;;2.50;1.13;;;5.00;99.90;;;;;;5014076;28;20430;-68
2022/04/02 06:54:44;;;;;;;1.10;1.00;;;4.90;99.90;;;;;;5015021;28;20819;-68
2022/04/02 06:57:09;;;;;;;1.80;1.20;;;5.00;99.90;;;;;;5014424;28;20176;-67
2022/04/02 06:59:34;;;;;;;1.77;1.57;;;4.90;99.90;;;;;;5012941;28;20669;-67
2022/04/02 07:02:01;;;;;;;4.10;1.40;;;5.00;99.90;;;;;;5013439;28;20573;-67
2022/04/02 07:04:27;;;;;;;2.27;1.60;;;5.00;99.90;;;;;;5013466;28;20176;-69
2022/04/02 07:06:53;;;;;;;1.57;1.13;;;4.90;99.90;;;;;;5013446;28;20410;-67
2022/04/02 07:09:18;;;;;;;1.30;1.10;;;4.60;99.90;;;;;;5013437;28;20874;-67
2022/04/02 07:11:45;;;;;;;1.00;1.00;;;4.50;99.90;;;;;;5013417;28;20189;-68
2022/04/02 07:14:10;;;;;;;1.27;1.17;;;4.50;99.90;;;;;;5013388;28;20182;-67
2022/04/02 07:16:36;;;;;;;0.80;0.80;;;4.60;99.90;;;;;;5013281;28;20403;-68
2022/04/02 07:19:03;;;;;;;1.40;1.03;;;4.40;99.90;;;;;;5012893;28;20619;-68
2022/04/02 07:21:29;;;;;;;0.90;0.90;;;4.30;99.90;;;;;;5013167;28;20562;-68
2022/04/02 07:23:56;;;;;;;1.90;1.23;;;4.00;99.90;;;;;;5012969;28;20486;-67
2022/04/02 07:26:22;;;;;;;1.70;1.20;;;3.90;99.90;;;;;;5012951;28;20495;-67
2022/04/02 07:28:48;;;;;;;1.73;1.63;;;3.90;99.90;;;;;;5012876;28;20431;-67
2022/04/02 07:31:14;;;;;;;2.47;1.90;;;3.90;99.90;;;;;;5012586;28;20905;-67
2022/04/02 07:33:39;;;;;;;1.23;1.10;;;3.70;99.90;;;;;;5012805;28;20157;-67
2022/04/02 07:36:09;;;;;;;1.30;1.20;;;3.70;99.90;;;;;;5012704;28;20160;-67
2022/04/02 07:39:01;;;;;;;2.83;1.13;;;3.70;99.90;;;;;;5012977;28;20216;-67
2022/04/02 07:42:06;;;;;;;1.33;1.00;;;3.80;99.90;;;;;;4986057;28;20561;-67
2022/04/02 07:44:57;;;;;;;2.53;1.30;;;3.80;99.90;;;;;;5012599;28;20423;-67
2022/04/02 07:47:28;;;;;;;1.23;0.80;;;3.70;99.90;;;;;;5012840;28;20396;-67
2022/04/02 07:49:59;;;;;;;3.07;1.20;;;3.70;99.90;;;;;;5013120;28;20399;-68
2022/04/02 07:52:27;;;;;;;1.53;1.43;;;3.80;99.90;;;;;;5012498;28;20423;-67
2022/04/02 07:54:57;;;;;;;1.13;1.07;;;3.80;99.90;;;;;;5012557;28;20993;-67
2022/04/02 07:57:34;;;;;;;1.93;1.20;;;3.90;99.90;;;;;;5012548;28;20458;-67
2022/04/02 08:00:03;;;;;;;0.80;0.80;;;4.00;99.90;;;;;;5012709;28;20415;-68
2022/04/02 08:02:36;;;;;;;1.57;1.23;;;4.00;99.90;;;;;;5012367;28;20969;-68
2022/04/02 08:05:02;;;;;;;1.77;1.60;;;3.90;99.90;;;;;;5012442;28;20400;-68
2022/04/02 08:07:33;;;;;;;1.07;0.97;;;3.80;99.90;;;;;;5012836;28;20407;-68
2022/04/02 08:10:01;;;;;;;4.60;1.10;;;3.90;99.90;;;;;;5012608;28;20409;-68
2022/04/02 08:12:28;;;;;;;0.93;0.90;;;3.80;99.90;;;;;;5012000;28;20462;-67
2022/04/02 08:14:53;;;;;;;1.17;1.07;;;3.80;99.90;;;;;;5011747;28;20597;-68
2022/04/02 08:17:21;;;;;;;1.63;1.30;;;3.90;99.90;;;;;;5011881;28;20507;-68
2022/04/02 08:19:49;;;;;;;1.13;1.03;;;3.90;99.90;;;;;;5012081;28;20354;-68
2022/04/02 08:22:16;;;;;;;2.20;1.60;;;4.10;99.90;;;;;;5011544;28;20960;-68
2022/04/02 08:24:44;;;;;;;1.07;0.90;;;4.20;99.90;;;;;;5010687;28;20415;-68
2022/04/02 08:27:47;;;;;;;0.97;0.90;;;4.10;99.10;;;;;;5011915;28;20480;-68
2022/04/02 08:30:22;;;;;;;2.73;1.73;;;4.10;98.00;;;;;;5011643;28;20399;-68
2022/04/02 08:33:04;;;;;;;1.57;1.47;;;4.00;96.40;;;;;;5012160;28;20537;-68
2022/04/02 08:35:39;;;;;;;1.13;1.00;;;4.00;95.10;;;;;;5011565;28;20482;-68
2022/04/02 08:38:40;;;;;;;1.30;1.20;;;4.00;94.00;;;;;;5011519;28;20770;-67
2022/04/02 08:41:38;;;;;;;1.00;1.00;;;4.00;93.40;;;;;;5011717;28;20967;-67
2022/04/02 08:44:39;;;;;;;0.80;0.80;;;4.10;92.90;;;;;;5011482;28;20469;-68
2022/04/02 08:47:42;;;;;;;0.60;0.60;;;4.20;92.60;;;;;;5011544;28;20403;-68
2022/04/02 08:50:15;;;;;;;0.90;0.90;;;4.30;91.90;;;;;;5011561;28;20403;-68
2022/04/02 08:53:04;;;;;;;1.57;1.40;;;4.30;91.50;;;;;;5011119;28;20423;-67
2022/04/02 08:55:41;;;;;;;1.03;0.97;;;4.30;91.20;;;;;;5011160;28;20773;-69
2022/04/02 08:58:21;;;;;;;2.17;1.40;;;4.50;91.20;;;;;;5011011;28;20517;-68
2022/04/02 09:01:03;;;;;;;0.97;0.87;;;4.60;90.70;;;;;;5010997;28;20437;-68
2022/04/02 09:04:01;;;;;;;1.17;1.17;;;4.60;90.50;;;;;;5011357;28;20487;-68
2022/04/02 09:06:53;;;;;;;2.50;1.40;;;4.80;90.30;;;;;;5011050;28;20410;-68
2022/04/02 09:09:33;;;;;;;2.40;1.60;;;5.40;88.90;;;;;;5011157;28;20743;-68
2022/04/02 09:12:20;;;;;;;1.50;1.23;;;5.70;86.90;;;;;;5010905;28;20422;-68
2022/04/02 09:15:01;;;;;;;1.17;1.10;;;6.10;85.50;;;;;;5010903;28;20915;-68
2022/04/02 09:18:13;;;;;;;1.10;1.10;;;6.30;83.70;;;;;;5010929;28;20481;-67
2022/04/02 09:21:14;;;;;;;1.13;1.00;;;6.60;82.30;;;;;;4950429;29;20796;-68
2022/04/02 09:24:07;;;;;;;1.27;1.10;;;6.70;82.30;;;;;;5013835;28;20426;-68
2022/04/02 09:27:04;;;;;;;1.27;1.17;;;6.80;80.90;;;;;;5014792;28;20411;-67
2022/04/02 09:29:51;;;;;;;0.80;0.80;;;6.60;77.30;;;;;;5014563;28;20837;-67
2022/04/02 09:32:38;;;;;;;1.40;1.30;;;6.30;77.30;;;;;;5014192;28;20438;-68
2022/04/02 09:35:31;;;;;;;1.87;1.23;;;6.20;78.70;;;;;;5014298;28;20410;-68
2022/04/02 09:38:31;;;;;;;4.00;1.03;;;5.80;79.80;;;;;;5014598;28;20907;-68
2022/04/02 09:41:17;;;;;;;1.60;1.40;;;5.70;81.10;;;;;;5014534;28;20399;-68
2022/04/02 09:43:57;;;;;;;2.20;1.50;;;5.70;82.10;;;;;;5014612;28;20762;-68
2022/04/02 09:47:07;;;;;;;1.80;1.10;;;6.00;81.90;;;;;;5014227;28;20406;-68
2022/04/02 09:49:49;;;;;;;1.30;1.20;;;5.70;81.50;;;;;;5014496;28;20540;-69
2022/04/02 09:52:21;;;;;;;1.00;1.00;;;5.70;81.00;;;;;;5014587;28;20448;-69
2022/04/02 09:55:06;;;;;;;1.00;1.00;;;5.90;81.70;;;;;;5014051;28;20768;-69
2022/04/02 09:58:07;;;;;;;1.10;1.00;;;5.80;80.30;;;;;;5014328;28;20879;-68
2022/04/02 10:01:05;;;;;;;2.40;2.03;;;5.80;80.30;;;;;;5014215;28;20394;-68
2022/04/02 10:03:37;;;;;;;1.50;1.40;;;5.90;79.60;;;;;;5013649;28;20612;-68
2022/04/02 10:06:18;;;;;;;4.50;1.57;;;6.00;78.80;;;;;;5013932;28;20453;-69
2022/04/02 10:09:14;;;;;;;2.77;2.27;;;6.10;78.00;;;;;;5013967;28;20644;-68
2022/04/02 10:11:52;;;;;;;3.93;1.90;;;5.80;78.60;;;;;;5013701;28;20423;-68
2022/04/02 10:14:21;;;;;;;1.20;1.10;;;5.80;78.70;;;;;;5013819;28;20510;-69
2022/04/02 10:16:51;;;;;;;1.30;1.20;;;6.00;77.70;;;;;;5014264;28;20411;-69
2022/04/02 10:19:19;;;;;;;1.37;1.30;;;6.30;77.70;;;;;;5014359;28;20411;-68
2022/04/02 10:21:50;;;;;;;1.87;1.10;;;6.50;77.10;;;;;;5013692;28;20455;-68
2022/04/02 10:24:21;;;;;;;3.80;1.93;;;6.50;77.60;;;;;;5013972;28;20917;-68
2022/04/02 10:26:52;;;;;;;1.67;1.40;;;6.40;76.80;;;;;;5013926;28;20410;-69
2022/04/02 10:29:50;;;;;;;1.60;1.50;;;6.30;75.20;;;;;;5013939;28;20403;-68
2022/04/02 10:32:44;;;;;;;1.90;1.60;;;6.30;74.60;;;;;;5044024;23;20521;-72
2022/04/02 10:35:11;;;;;;;2.37;1.00;;;6.40;75.10;;;;;;5007167;28;20481;-71
2022/04/02 10:38:08;;;;;;;2.30;1.50;;;6.50;75.10;;;;;;5013707;28;20515;-71
2022/04/02 10:40:45;;;;;;;2.87;1.60;;;6.40;75.70;;;;;;5013713;28;20498;-73
2022/04/02 10:43:28;;;;;;;2.03;1.47;;;6.50;74.70;;;;;;5013479;28;20550;-72
2022/04/02 10:45:56;;;;;;;1.80;1.40;;;6.50;74.50;;;;;;5013460;28;20958;-72
2022/04/02 10:49:01;;;;;;;1.93;1.57;;;6.60;74.50;;;;;;5013582;28;20487;-74
2022/04/02 10:51:29;;;;;;;1.83;1.40;;;7.00;73.80;;;;;;5012126;28;20426;-72
2022/04/02 10:54:10;;;;;;;1.47;1.33;;;7.40;72.80;;;;;;5013592;28;20404;-72
2022/04/02 10:56:48;;;;;;;1.93;1.73;;;7.30;71.30;;;;;;5013671;28;20823;-72
2022/04/02 10:59:15;;;;;;;1.30;1.10;;;7.40;72.10;;;;;;5011991;28;20738;-71
2022/04/02 11:01:46;;;;;;;1.30;1.00;;;7.40;70.70;;;;;;5013250;28;20532;-72
2022/04/02 11:04:48;;;;;;;1.00;0.90;;;7.20;70.00;;;;;;5013146;28;20424;-73
2022/04/02 11:07:29;;;;;;;1.43;1.33;;;7.00;70.50;;;;;;5011968;28;20418;-70
2022/04/02 11:09:58;;;;;;;1.43;1.10;;;7.00;71.30;;;;;;5013435;28;20411;-71
2022/04/02 11:12:41;;;;;;;1.20;1.10;;;7.00;71.60;;;;;;5013014;28;20424;-73
2022/04/02 11:15:24;;;;;;;0.93;0.93;;;7.00;71.70;;;;;;5013255;28;20414;-73
2022/04/02 11:18:01;;;;;;;2.40;1.40;;;7.00;70.10;;;;;;5013158;28;20465;-73
2022/04/02 11:20:29;;;;;;;2.43;1.13;;;7.10;70.00;;;;;;5013095;28;20421;-73
2022/04/02 11:22:56;;;;;;;1.27;1.10;;;6.80;70.50;;;;;;5012670;28;21041;-72
2022/04/02 11:25:28;;;;;;;1.03;1.03;;;7.00;70.30;;;;;;5012928;28;20404;-72
2022/04/02 11:27:55;;;;;;;1.50;1.40;;;7.00;70.70;;;;;;5012938;28;20410;-72
2022/04/02 11:30:26;;;;;;;1.33;1.17;;;6.90;72.40;;;;;;5012840;28;20414;-72
2022/04/02 11:33:01;;;;;;;1.10;1.00;;;6.50;76.50;;;;;;5012557;28;20973;-71
2022/04/02 11:35:29;;;;;;;0.80;0.80;;;6.00;81.20;;;;;;5012530;28;20431;-72
2022/04/02 11:38:07;;;;;;;0.90;0.90;;;5.70;83.90;;;;;;5012574;28;20408;-72
2022/04/02 11:40:37;;;;;;;1.10;1.00;;;5.60;85.30;;;;;;5012655;28;20411;-71
2022/04/02 11:43:03;;;;;;;1.93;1.20;;;5.60;87.20;;;;;;5012200;28;20845;-73
2022/04/02 11:45:30;;;;;;;1.87;1.77;;;5.60;87.80;;;;;;5011976;28;20493;-72
2022/04/02 11:48:09;;;;;;;1.53;1.00;;;5.70;87.70;;;;;;5012338;28;20164;-72
2022/04/02 11:50:38;;;;;;;1.23;1.07;;;5.90;87.80;;;;;;5012385;28;20418;-72
2022/04/02 11:53:04;;;;;;;1.50;1.40;;;5.90;87.30;;;;;;5012298;28;20462;-71
2022/04/02 11:55:35;;;;;;;1.20;1.10;;;5.90;87.70;;;;;;5012653;28;20407;-71
2022/04/02 11:58:06;;;;;;;1.60;1.40;;;6.00;85.50;;;;;;5011113;28;20182;-70
2022/04/02 12:00:37;;;;;;;1.27;0.83;;;6.30;86.50;;;;;;5012367;28;20423;-72
2022/04/02 12:03:03;;;;;;;1.30;1.20;;;6.50;86.70;;;;;;5012410;28;20451;-73
2022/04/02 12:05:42;;;;;;;0.97;0.97;;;6.40;86.80;;;;;;5010912;28;20458;-71
2022/04/02 12:08:08;;;;;;;3.30;1.70;;;6.20;87.90;;;;;;5012238;28;20834;-70
2022/04/02 12:10:43;;;;;;;1.73;1.33;;;6.10;89.30;;;;;;5011993;28;20487;-71
2022/04/02 12:13:10;;;;;;;1.50;1.40;;;5.70;91.20;;;;;;5012329;28;20450;-72
2022/04/02 12:15:36;;;;;;;1.70;0.80;;;5.50;92.20;;;;;;5012064;28;20411;-72
2022/04/02 12:18:07;;;;;;;1.37;1.27;;;5.30;92.90;;;;;;5012278;28;20410;-71
2022/04/02 12:20:36;;;;;;;1.63;1.03;;;5.10;93.60;;;;;;5012059;28;20167;-73
2022/04/02 12:23:08;;;;;;;1.20;1.10;;;5.00;93.70;;;;;;5011668;28;20473;-72
2022/04/02 12:25:34;;;;;;;1.50;1.40;;;4.90;92.40;;;;;;5011708;28;20414;-73
2022/04/02 12:28:12;;;;;;;1.27;1.10;;;5.10;92.50;;;;;;5011913;28;20412;-71
2022/04/02 12:30:46;;;;;;;1.10;1.00;;;5.10;92.20;;;;;;5011897;28;20878;-71
2022/04/02 12:33:15;;;;;;;1.27;1.17;;;5.20;90.00;;;;;;5011354;28;20443;-71
2022/04/02 12:35:44;;;;;;;1.20;1.10;;;5.20;89.70;;;;;;5011496;28;20546;-71
2022/04/02 12:38:23;;;;;;;2.70;1.37;;;5.40;87.50;;;;;;5011772;28;20737;-72
2022/04/02 12:40:49;;;;;;;1.27;1.17;;;5.40;86.30;;;;;;5011563;28;20477;-71
2022/04/02 12:43:23;;;;;;;1.10;1.00;;;5.40;86.40;;;;;;5011334;28;20577;-72
2022/04/02 12:45:49;;;;;;;6.73;1.60;;;5.60;86.50;;;;;;5011421;28;20402;-71
2022/04/02 12:48:17;;;;;;;1.13;1.03;;;5.60;86.80;;;;;;5011436;28;20423;-73
2022/04/02 12:51:00;;;;;;;1.57;1.20;;;5.70;86.30;;;;;;5011825;28;20621;-72
2022/04/02 12:53:29;;;;;;;1.50;1.00;;;5.70;85.60;;;;;;5010200;28;20446;-71
2022/04/02 12:55:55;;;;;;;0.70;0.70;;;5.60;86.00;;;;;;5011395;28;20410;-73
2022/04/02 12:58:31;;;;;;;1.40;1.00;;;5.60;86.10;;;;;;5010806;28;20921;-72
2022/04/02 13:01:11;;;;;;;1.70;1.50;;;5.40;86.40;;;;;;5011369;28;20403;-70
2022/04/02 13:03:45;;;;;;;7.00;1.37;;;5.40;90.10;;;;;;5011287;28;20552;-71
2022/04/02 13:06:17;;;;;;;1.07;1.07;;;5.30;91.50;;;;;;5011329;28;20422;-71
2022/04/02 13:08:53;;;;;;;1.00;0.97;;;5.10;92.80;;;;;;5011177;28;20408;-71
2022/04/02 13:11:58;;;;;;;2.17;1.13;;;5.00;93.60;;;;;;5011134;28;20458;-72
2022/04/02 13:14:34;;;;;;;1.33;1.23;;;4.80;93.10;;;;;;5011293;28;20399;-73
2022/04/02 13:17:07;;;;;;;5.90;2.20;;;4.60;92.10;;;;;;5011293;28;20426;-71
2022/04/02 13:22:54;;;;;;;1.00;1.00;;;4.70;91.30;;;;;;5011031;28;20704;-72